Galva, IL (61434)

6:06 AM CST on December 11, 2016 (GMT -0600)
La Fayette (Knox County) | | Change Station
Active Advisory: Winter Weather Advisory

Elev 751 ft 41.10 °N, 90.00 °W | Updated 32 seconds ago

Overcast
Overcast
29.8 °F
Feels Like 23 °F
N
7.0
Wind Variable Wind from SE

Today
High -- | Low -- °F
--% Chance of Precip.
Yesterday
High -- | Low -- °F
Precip. -- in
Pressure 29.96 in
Visibility 10.0 miles
Clouds Overcast 3900 ft
Windchill 23 °F
Dew Point 23 °F
Humidity 76%
Rainfall 0.00 in
Snow Depth Not available.
7:15 AM 4:31 PM
Waxing Gibbous, 91% visible
METAR KGBG 111155Z AUTO 14005KT 10SM OVC039 00/M05 A2996 RMK AO2 T10021048 11002 21020
Pressure 29.96 in
Visibility 10.0 miles
Clouds Overcast 3900 ft
Windchill 23 °F
Dew Point 23 °F
Humidity 76%
Rainfall 0.00 in
Snow Depth Not available.
7:15 AM 4:31 PM
Waxing Gibbous, 91% visible
METAR KGBG 111155Z AUTO 14005KT 10SM OVC039 00/M05 A2996 RMK AO2 T10021048 11002 21020

10-Day Weather Forecast

Almanac

Astronomy

Dec. 11, 2016 Rise Set
Actual Time
Civil Twilight
Nautical Twilight
Astronomical Twilight
Moon
Length of Visible Light
Length of Day
Tomorrow will be .
, % of the Moon is Illuminated

Today's Extremes

State Highs State Lows

Community

WunderPhotos

Upload Photos

1,956,710 photos uploaded!

WunderBlog® & News

Nearby

Air Quality

  Air Quality AQ Index Pollutant
Not available.

Snow Depth

Station Depth Elevation

Earthquake Activity

City Distance Mag. Time & Date
Minimum magnitude displayed is 2.5.

Coastal Water Temperatures

Place Temperature

Stations

Nearby Weather Stations

Station Location Temp. Windchill Dew Point Humidity Wind Precip. Elev Updated Type
                   

Watches & Warnings

Winter Weather Advisory
Issued: 3:56 AM CST Dec. 11, 2016 – National Weather Service

... Winter Weather Advisory remains in effect until 6 PM CST this
evening...

* timing... periods of snow through late afternoon.

* Snow accumulations... 2 to 4 inches.

* Wind... south 5 to 15 mph.

* Temperatures... upper 20s to mid 30s.

* Impacts... light to moderate snowfall will create slippery
travel conditions over the area... and will reduce visibility
to under 1 mile at times.

Precautionary/preparedness actions...

A Winter Weather Advisory for snow means that periods of snow
will cause primarily travel difficulties. Be prepared for snow
covered roads and limited visibilities... and use caution while
driving.



12